Time,TemperatureF,DewpointF,PressureIn,WindDirection,WindDirectionDegrees,WindSpeedMPH,WindSpeedGustMPH,Humidity,HourlyPrecipIn,Conditions,Clouds,dailyrainin,SoftwareType,DateUTC
2013-12-13 00:01:00,24.1,12.6,30.00,SSW,193,0.0,0.0,61,0.00,,,0.00,WUHU216WMR968SP,2013-12-13 06:01:00,
2013-12-13 00:06:00,24.3,12.8,30.00,SSW,193,0.0,0.0,61,0.00,,,0.00,WUHU216WMR968SP,2013-12-13 06:06:00,
2013-12-13 00:11:00,24.4,12.9,30.00,SSW,193,0.0,0.0,61,0.00,,,0.00,WUHU216WMR968SP,2013-12-13 06:11:00,
2013-12-13 00:16:00,24.4,12.9,30.00,SSW,193,0.0,0.0,61,0.00,,,0.00,WUHU216WMR968SP,2013-12-13 06:16:00,
2013-12-13 00:21:00,24.4,13.3,30.00,SSW,193,0.0,0.0,62,0.00,,,0.00,WUHU216WMR968SP,2013-12-13 06:21:00,
2013-12-13 00:26:00,24.6,13.5,29.97,SSW,193,0.0,0.0,62,0.00,,,0.00,WUHU216WMR968SP,2013-12-13 06:26:00,
2013-12-13 00:31:00,24.8,13.7,29.97,SSW,193,0.0,0.0,62,0.00,,,0.00,WUHU216WMR968SP,2013-12-13 06:31:00,
2013-12-13 00:36:00,24.8,13.7,29.97,SSW,193,0.0,0.0,62,0.00,,,0.00,WUHU216WMR968SP,2013-12-13 06:36:00,
2013-12-13 00:41:00,24.8,13.7,29.97,SSW,193,0.0,0.0,62,0.00,,,0.00,WUHU216WMR968SP,2013-12-13 06:41:00,
2013-12-13 00:46:00,24.8,13.7,29.97,SSW,193,0.0,0.0,62,0.00,,,0.00,WUHU216WMR968SP,2013-12-13 06:46:00,
2013-12-13 00:51:00,24.4,13.7,29.97,SSW,193,0.0,0.0,63,0.00,,,0.00,WUHU216WMR968SP,2013-12-13 06:51:00,
2013-12-13 00:56:00,24.4,13.7,29.97,SSW,193,0.0,0.0,63,0.00,,,0.00,WUHU216WMR968SP,2013-12-13 06:56:00,
2013-12-13 01:01:00,24.3,13.6,29.97,SSW,193,0.0,0.0,63,0.00,,,0.00,WUHU216WMR968SP,2013-12-13 07:01:00,
2013-12-13 01:06:00,24.3,13.6,29.97,SSW,193,0.0,0.0,63,0.00,,,0.00,WUHU216WMR968SP,2013-12-13 07:06:00,
2013-12-13 01:11:00,24.3,13.6,29.97,SSW,193,0.0,0.0,63,0.00,,,0.00,WUHU216WMR968SP,2013-12-13 07:11:00,
2013-12-13 01:16:00,24.1,13.7,29.97,SSW,193,0.0,0.0,64,0.00,,,0.00,WUHU216WMR968SP,2013-12-13 07:16:00,
2013-12-13 01:21:00,23.9,13.5,29.97,SSW,193,0.0,0.0,64,0.00,,,0.00,WUHU216WMR968SP,2013-12-13 07:21:00,
2013-12-13 01:26:00,23.7,13.4,29.94,SSW,193,0.0,0.0,64,0.00,,,0.00,WUHU216WMR968SP,2013-12-13 07:26:00,
2013-12-13 01:31:00,23.7,13.4,29.94,SSW,193,0.0,0.0,64,0.00,,,0.00,WUHU216WMR968SP,2013-12-13 07:31:00,
2013-12-13 01:36:00,23.5,13.2,29.94,SSW,193,0.0,0.0,64,0.00,,,0.00,WUHU216WMR968SP,2013-12-13 07:36:00,
2013-12-13 01:41:00,23.5,13.5,29.97,SSW,193,0.0,0.0,65,0.00,,,0.00,WUHU216WMR968SP,2013-12-13 07:41:00,
2013-12-13 01:46:00,23.5,13.5,29.97,SSW,193,0.0,0.0,65,0.00,,,0.00,WUHU216WMR968SP,2013-12-13 07:46:00,
2013-12-13 01:51:00,23.9,14.2,29.97,SSW,193,0.0,0.0,66,0.00,,,0.00,WUHU216WMR968SP,2013-12-13 07:51:00,
2013-12-13 01:56:00,24.1,14.4,29.97,SSW,193,0.0,0.0,66,0.00,,,0.00,WUHU216WMR968SP,2013-12-13 07:56:00,
2013-12-13 02:01:00,24.3,14.6,29.97,SSW,193,0.0,0.0,66,0.00,,,0.00,WUHU216WMR968SP,2013-12-13 08:01:00,
2013-12-13 02:06:00,24.1,14.4,29.97,SSW,193,0.0,0.0,66,0.00,,,0.00,WUHU216WMR968SP,2013-12-13 08:06:00,
2013-12-13 02:11:00,23.9,14.2,29.97,SSW,193,0.0,0.0,66,0.00,,,0.00,WUHU216WMR968SP,2013-12-13 08:11:00,
2013-12-13 02:16:00,23.7,14.1,29.97,SSW,193,0.0,0.0,66,0.00,,,0.00,WUHU216WMR968SP,2013-12-13 08:16:00,
2013-12-13 02:21:00,23.5,13.9,29.97,SSW,193,0.0,0.0,66,0.00,,,0.00,WUHU216WMR968SP,2013-12-13 08:21:00,
2013-12-13 02:26:00,23.7,14.4,29.97,SSW,193,0.0,0.0,67,0.00,,,0.00,WUHU216WMR968SP,2013-12-13 08:26:00,
2013-12-13 02:31:00,23.7,14.1,29.97,SSW,193,0.0,0.0,66,0.00,,,0.00,WUHU216WMR968SP,2013-12-13 08:31:00,
2013-12-13 02:36:00,23.7,14.4,29.97,SSW,193,0.0,0.0,67,0.00,,,0.00,WUHU216WMR968SP,2013-12-13 08:36:00,
2013-12-13 02:41:00,23.7,14.4,29.94,SSW,193,0.0,0.0,67,0.00,,,0.00,WUHU216WMR968SP,2013-12-13 08:41:00,
2013-12-13 02:46:00,23.9,14.6,29.94,SSW,193,0.0,0.0,67,0.00,,,0.00,WUHU216WMR968SP,2013-12-13 08:46:00,
2013-12-13 02:51:00,23.7,14.4,29.94,SSW,193,0.0,0.0,67,0.00,,,0.00,WUHU216WMR968SP,2013-12-13 08:51:00,
2013-12-13 02:56:00,23.7,14.4,29.94,SSW,193,0.0,0.0,67,0.00,,,0.00,WUHU216WMR968SP,2013-12-13 08:56:00,
2013-12-13 03:01:00,23.9,14.6,29.94,SSW,193,0.0,0.0,67,0.00,,,0.00,WUHU216WMR968SP,2013-12-13 09:01:00,
2013-12-13 03:06:00,24.1,14.8,29.94,SSW,194,0.0,0.0,67,0.00,,,0.00,WUHU216WMR968SP,2013-12-13 09:06:00,
2013-12-13 03:11:00,24.1,14.8,29.94,SSW,193,0.0,0.0,67,0.00,,,0.00,WUHU216WMR968SP,2013-12-13 09:11:00,
2013-12-13 03:16:00,24.3,15.0,29.94,SSW,193,0.0,0.0,67,0.00,,,0.00,WUHU216WMR968SP,2013-12-13 09:16:00,
2013-12-13 03:21:00,24.1,15.1,29.94,SSW,193,0.0,0.0,68,0.00,,,0.00,WUHU216WMR968SP,2013-12-13 09:21:00,
2013-12-13 03:26:00,23.7,14.7,29.94,SSW,193,0.0,0.0,68,0.00,,,0.00,WUHU216WMR968SP,2013-12-13 09:26:00,
2013-12-13 03:31:00,23.5,14.2,29.94,SSW,193,0.0,0.0,67,0.00,,,0.00,WUHU216WMR968SP,2013-12-13 09:31:00,
2013-12-13 03:36:00,23.5,14.5,29.94,SSW,193,0.0,0.0,68,0.00,,,0.00,WUHU216WMR968SP,2013-12-13 09:36:00,
2013-12-13 03:41:00,23.9,14.9,29.94,SSW,193,0.0,0.0,68,0.00,,,0.00,WUHU216WMR968SP,2013-12-13 09:41:00,
2013-12-13 03:46:00,24.4,15.4,29.94,SSW,193,0.0,0.0,68,0.00,,,0.00,WUHU216WMR968SP,2013-12-13 09:46:00,
2013-12-13 03:51:00,24.4,15.7,29.94,SSW,193,0.0,0.0,69,0.00,,,0.00,WUHU216WMR968SP,2013-12-13 09:51:00,
2013-12-13 03:56:00,24.6,15.9,29.94,SSW,193,0.0,0.0,69,0.00,,,0.00,WUHU216WMR968SP,2013-12-13 09:56:00,
2013-12-13 04:01:00,24.4,15.4,29.94,SSW,193,0.0,2.2,68,0.00,,,0.00,WUHU216WMR968SP,2013-12-13 10:01:00,
2013-12-13 04:06:00,24.4,15.4,29.94,SSW,193,0.0,2.2,68,0.00,,,0.00,WUHU216WMR968SP,2013-12-13 10:06:00,
2013-12-13 04:11:00,24.4,15.4,29.94,SSW,193,0.0,2.2,68,0.00,,,0.00,WUHU216WMR968SP,2013-12-13 10:11:00,
2013-12-13 04:16:00,24.4,15.4,29.94,SSW,193,0.0,2.2,68,0.00,,,0.00,WUHU216WMR968SP,2013-12-13 10:16:00,
2013-12-13 04:21:00,24.4,15.4,29.94,SSW,193,0.0,0.0,68,0.00,,,0.00,WUHU216WMR968SP,2013-12-13 10:21:00,
2013-12-13 04:26:00,24.4,15.1,29.94,SSW,193,0.0,0.0,67,0.00,,,0.00,WUHU216WMR968SP,2013-12-13 10:26:00,
2013-12-13 04:31:00,24.4,15.1,29.94,SSW,193,0.0,0.0,67,0.00,,,0.00,WUHU216WMR968SP,2013-12-13 10:31:00,
2013-12-13 04:36:00,24.4,15.1,29.94,SSW,193,0.0,2.7,67,0.00,,,0.00,WUHU216WMR968SP,2013-12-13 10:36:00,
2013-12-13 04:41:00,24.4,15.1,29.94,SSW,193,0.0,2.7,67,0.00,,,0.00,WUHU216WMR968SP,2013-12-13 10:41:00,
2013-12-13 04:46:00,24.4,15.1,29.94,SSW,193,0.0,0.0,67,0.00,,,0.00,WUHU216WMR968SP,2013-12-13 10:46:00,
2013-12-13 04:51:00,24.4,15.1,29.94,SSW,193,0.0,0.0,67,0.00,,,0.00,WUHU216WMR968SP,2013-12-13 10:51:00,
2013-12-13 04:56:00,24.4,15.1,29.91,SSW,193,0.0,3.1,67,0.00,,,0.00,WUHU216WMR968SP,2013-12-13 10:56:00,
2013-12-13 05:01:00,24.3,14.6,29.91,SSW,193,0.0,3.1,66,0.00,,,0.00,WUHU216WMR968SP,2013-12-13 11:01:00,
2013-12-13 05:06:00,24.1,14.4,29.91,SSW,193,0.0,0.0,66,0.00,,,0.00,WUHU216WMR968SP,2013-12-13 11:06:00,
2013-12-13 05:11:00,24.4,14.7,29.91,SSW,193,0.0,0.0,66,0.00,,,0.00,WUHU216WMR968SP,2013-12-13 11:11:00,
2013-12-13 05:16:00,24.8,15.1,29.91,SSW,193,0.0,0.0,66,0.00,,,0.00,WUHU216WMR968SP,2013-12-13 11:16:00,
2013-12-13 05:21:00,25.2,15.5,29.91,SSW,193,0.0,2.7,66,0.00,,,0.00,WUHU216WMR968SP,2013-12-13 11:21:00,
2013-12-13 05:26:00,25.3,15.6,29.91,SSW,193,0.0,2.7,66,0.00,,,0.00,WUHU216WMR968SP,2013-12-13 11:26:00,
2013-12-13 05:31:00,25.3,15.6,29.91,SSW,193,0.0,2.7,66,0.00,,,0.00,WUHU216WMR968SP,2013-12-13 11:31:00,
2013-12-13 05:36:00,25.5,15.8,29.91,SSW,193,0.0,0.0,66,0.00,,,0.00,WUHU216WMR968SP,2013-12-13 11:36:00,
2013-12-13 05:41:00,25.5,15.8,29.91,SSW,193,0.0,0.0,66,0.00,,,0.00,WUHU216WMR968SP,2013-12-13 11:41:00,
2013-12-13 05:46:00,25.9,15.8,29.91,SSW,193,0.0,2.2,65,0.00,,,0.00,WUHU216WMR968SP,2013-12-13 11:46:00,
2013-12-13 05:51:00,26.1,15.6,29.91,SSW,193,0.0,2.2,64,0.00,,,0.00,WUHU216WMR968SP,2013-12-13 11:51:00,
2013-12-13 05:56:00,26.1,15.3,29.91,SSW,193,0.0,0.0,63,0.00,,,0.00,WUHU216WMR968SP,2013-12-13 11:56:00,
2013-12-13 06:01:00,26.1,14.9,29.91,SSW,193,0.0,3.1,62,0.00,,,0.00,WUHU216WMR968SP,2013-12-13 12:01:00,
2013-12-13 06:06:00,26.1,14.5,29.91,SSW,193,0.0,3.1,61,0.00,,,0.00,WUHU216WMR968SP,2013-12-13 12:06:00,
2013-12-13 06:11:00,26.4,14.8,29.91,SSW,193,0.0,3.1,61,0.00,,,0.00,WUHU216WMR968SP,2013-12-13 12:11:00,
2013-12-13 06:16:00,27.0,15.4,29.91,SSW,193,0.0,3.1,61,0.00,,,0.00,WUHU216WMR968SP,2013-12-13 12:16:00,
2013-12-13 06:21:00,27.1,15.5,29.91,SSW,193,2.2,2.7,61,0.00,,,0.00,WUHU216WMR968SP,2013-12-13 12:21:00,
2013-12-13 06:24:00,27.3,15.7,29.91,SSW,193,2.2,2.7,61,0.00,,,0.00,WUHU216WMR968SP,2013-12-13 12:24:00,
2013-12-13 06:29:00,27.9,15.8,29.91,SSW,193,2.7,3.1,60,0.00,,,0.00,WUHU216WMR968SP,2013-12-13 12:29:00,
2013-12-13 06:34:00,28.2,16.1,29.91,SSE,165,2.7,3.6,60,0.00,,,0.00,WUHU216WMR968SP,2013-12-13 12:34:00,
2013-12-13 06:39:00,28.4,15.9,29.91,SE,136,2.7,4.0,59,0.00,,,0.00,WUHU216WMR968SP,2013-12-13 12:39:00,
2013-12-13 06:44:00,28.6,15.3,29.91,South,178,2.2,4.0,57,0.00,,,0.00,WUHU216WMR968SP,2013-12-13 12:44:00,
2013-12-13 06:49:00,28.9,14.7,29.91,SSE,148,2.2,4.0,55,0.00,,,0.00,WUHU216WMR968SP,2013-12-13 12:49:00,
2013-12-13 06:54:00,29.1,14.5,29.88,SSE,167,2.2,4.0,54,0.00,,,0.00,WUHU216WMR968SP,2013-12-13 12:54:00,
2013-12-13 06:59:00,29.5,14.4,29.88,South,175,2.7,4.0,53,0.00,,,0.00,WUHU216WMR968SP,2013-12-13 12:59:00,
2013-12-13 07:04:00,29.5,14.0,29.88,SSE,168,0.0,4.0,52,0.00,,,0.00,WUHU216WMR968SP,2013-12-13 13:04:00,
2013-12-13 07:09:00,29.8,14.3,29.88,ESE,111,2.2,3.6,52,0.00,,,0.00,WUHU216WMR968SP,2013-12-13 13:09:00,
2013-12-13 07:14:00,30.2,14.2,29.88,South,187,2.2,4.0,51,0.00,,,0.00,WUHU216WMR968SP,2013-12-13 13:14:00,
2013-12-13 07:19:00,30.6,14.1,29.88,SSW,192,2.2,4.0,50,0.00,,,0.00,WUHU216WMR968SP,2013-12-13 13:19:00,
2013-12-13 07:24:00,30.9,13.9,29.88,SW,216,2.7,4.0,49,0.00,,,0.00,WUHU216WMR968SP,2013-12-13 13:24:00,
2013-12-13 07:29:00,31.3,13.3,29.88,South,173,2.2,4.0,47,0.00,,,0.00,WUHU216WMR968SP,2013-12-13 13:29:00,
2013-12-13 07:34:00,31.8,13.2,29.88,South,182,3.8,5.4,46,0.00,,,0.00,WUHU216WMR968SP,2013-12-13 13:34:00,
2013-12-13 07:39:00,32.2,13.6,29.88,South,178,2.7,5.4,46,0.00,,,0.00,WUHU216WMR968SP,2013-12-13 13:39:00,
2013-12-13 07:44:00,32.4,12.8,29.88,SSE,161,2.7,4.9,44,0.00,,,0.00,WUHU216WMR968SP,2013-12-13 13:44:00,
2013-12-13 07:49:00,32.5,12.3,29.88,South,171,3.1,7.6,43,0.00,,,0.00,WUHU216WMR968SP,2013-12-13 13:49:00,
2013-12-13 07:54:00,32.7,12.5,29.88,South,174,2.7,7.6,43,0.00,,,0.00,WUHU216WMR968SP,2013-12-13 13:54:00,
2013-12-13 07:59:00,33.1,12.9,29.88,SSE,167,3.1,4.0,43,0.00,,,0.00,WUHU216WMR968SP,2013-12-13 13:59:00,
2013-12-13 08:04:00,33.3,12.5,29.88,South,181,2.2,4.9,42,0.00,,,0.00,WUHU216WMR968SP,2013-12-13 14:04:00,
2013-12-13 08:09:00,33.3,12.5,29.88,SSE,166,2.2,4.9,42,0.00,,,0.00,WUHU216WMR968SP,2013-12-13 14:09:00,
2013-12-13 08:14:00,33.6,12.2,29.88,South,182,0.0,4.0,41,0.00,,,0.00,WUHU216WMR968SP,2013-12-13 14:14:00,
2013-12-13 08:19:00,33.8,12.4,29.88,South,182,0.0,4.0,41,0.00,,,0.00,WUHU216WMR968SP,2013-12-13 14:19:00,
2013-12-13 08:24:00,34.0,12.6,29.88,South,179,2.2,3.6,41,0.00,,,0.00,WUHU216WMR968SP,2013-12-13 14:24:00,
2013-12-13 08:29:00,34.3,12.8,29.88,South,173,0.0,3.6,41,0.00,,,0.00,WUHU216WMR968SP,2013-12-13 14:29:00,
2013-12-13 08:34:00,34.5,13.0,29.88,South,188,3.6,4.9,41,0.00,,,0.00,WUHU216WMR968SP,2013-12-13 14:34:00,
2013-12-13 08:39:00,34.5,12.4,29.88,South,176,2.7,4.9,40,0.00,,,0.00,WUHU216WMR968SP,2013-12-13 14:39:00,
2013-12-13 08:44:00,34.7,12.6,29.88,South,175,3.1,4.9,40,0.00,,,0.00,WUHU216WMR968SP,2013-12-13 14:44:00,
2013-12-13 08:49:00,34.9,12.8,29.88,SSE,161,3.1,4.0,40,0.00,,,0.00,WUHU216WMR968SP,2013-12-13 14:49:00,
2013-12-13 08:54:00,34.9,12.8,29.88,South,182,3.3,4.9,40,0.00,,,0.00,WUHU216WMR968SP,2013-12-13 14:54:00,
2013-12-13 08:59:00,35.2,13.1,29.88,South,185,3.1,4.9,40,0.00,,,0.00,WUHU216WMR968SP,2013-12-13 14:59:00,
2013-12-13 09:04:00,35.4,13.3,29.88,SSW,192,2.7,4.9,40,0.00,,,0.00,WUHU216WMR968SP,2013-12-13 15:04:00,
2013-12-13 09:09:00,35.6,13.4,29.88,SSW,192,3.0,4.0,40,0.00,,,0.00,WUHU216WMR968SP,2013-12-13 15:09:00,
2013-12-13 09:14:00,35.8,13.6,29.88,South,172,2.6,4.0,40,0.00,,,0.00,WUHU216WMR968SP,2013-12-13 15:14:00,
2013-12-13 09:19:00,36.0,13.8,29.88,SSE,162,0.0,3.6,40,0.00,,,0.00,WUHU216WMR968SP,2013-12-13 15:19:00,
2013-12-13 09:24:00,36.0,13.2,29.88,SSE,165,0.0,3.1,39,0.00,,,0.00,WUHU216WMR968SP,2013-12-13 15:24:00,
2013-12-13 09:29:00,36.1,13.3,29.88,SSE,166,0.0,2.7,39,0.00,,,0.00,WUHU216WMR968SP,2013-12-13 15:29:00,
2013-12-13 09:34:00,36.3,13.5,29.88,SSE,165,0.0,2.2,39,0.00,,,0.00,WUHU216WMR968SP,2013-12-13 15:34:00,
2013-12-13 09:39:00,36.5,13.7,29.88,SSE,165,0.0,2.7,39,0.00,,,0.00,WUHU216WMR968SP,2013-12-13 15:39:00,
2013-12-13 09:44:00,36.9,12.8,29.88,ESE,117,0.0,3.1,37,0.00,,,0.00,WUHU216WMR968SP,2013-12-13 15:44:00,
2013-12-13 09:49:00,37.4,11.3,29.88,SE,140,2.7,4.9,34,0.00,,,0.00,WUHU216WMR968SP,2013-12-13 15:49:00,
2013-12-13 09:54:00,37.6,11.5,29.88,SSE,168,0.0,4.9,34,0.00,,,0.00,WUHU216WMR968SP,2013-12-13 15:54:00,
2013-12-13 09:59:00,38.1,12.0,29.88,SE,141,0.0,3.1,34,0.00,,,0.00,WUHU216WMR968SP,2013-12-13 15:59:00,
2013-12-13 10:04:00,38.3,11.5,29.88,SSE,151,0.0,3.1,33,0.00,,,0.00,WUHU216WMR968SP,2013-12-13 16:04:00,
2013-12-13 10:09:00,38.7,11.8,29.88,South,182,0.0,3.1,33,0.00,,,0.00,WUHU216WMR968SP,2013-12-13 16:09:00,
2013-12-13 10:14:00,39.7,13.4,29.88,South,182,0.0,4.0,34,0.00,,,0.00,WUHU216WMR968SP,2013-12-13 16:14:00,
2013-12-13 10:19:00,40.6,13.5,29.88,South,182,0.0,4.0,33,0.00,,,0.00,WUHU216WMR968SP,2013-12-13 16:19:00,
2013-12-13 10:24:00,41.4,13.5,29.88,SSW,202,2.2,4.0,32,0.00,,,0.00,WUHU216WMR968SP,2013-12-13 16:24:00,
2013-12-13 10:29:00,42.3,14.3,29.88,SSW,193,3.1,4.0,32,0.00,,,0.00,WUHU216WMR968SP,2013-12-13 16:29:00,
2013-12-13 10:34:00,43.0,14.2,29.88,South,189,2.2,4.0,31,0.00,,,0.00,WUHU216WMR968SP,2013-12-13 16:34:00,
2013-12-13 10:39:00,43.0,12.7,29.88,South,189,0.0,3.6,29,0.00,,,0.00,WUHU216WMR968SP,2013-12-13 16:39:00,
2013-12-13 10:44:00,43.3,12.9,29.88,South,189,0.0,3.6,29,0.00,,,0.00,WUHU216WMR968SP,2013-12-13 16:44:00,
2013-12-13 10:49:00,43.3,12.9,29.88,South,189,0.0,3.6,29,0.00,,,0.00,WUHU216WMR968SP,2013-12-13 16:49:00,
2013-12-13 10:54:00,43.0,12.7,29.85,South,189,0.0,3.6,29,0.00,,,0.00,WUHU216WMR968SP,2013-12-13 16:54:00,
2013-12-13 10:59:00,42.8,12.5,29.85,South,171,3.1,4.0,29,0.00,,,0.00,WUHU216WMR968SP,2013-12-13 16:59:00,
2013-12-13 11:04:00,43.0,13.4,29.85,SSE,160,0.0,4.0,30,0.00,,,0.00,WUHU216WMR968SP,2013-12-13 17:04:00,
2013-12-13 11:09:00,43.2,12.8,29.85,ENE,78,0.0,0.0,29,0.00,,,0.00,WUHU216WMR968SP,2013-12-13 17:09:00,
2013-12-13 11:14:00,43.7,13.3,29.85,South,183,0.0,0.0,29,0.00,,,0.00,WUHU216WMR968SP,2013-12-13 17:14:00,
2013-12-13 11:19:00,44.4,13.9,29.85,SSE,147,2.2,3.6,29,0.00,,,0.00,WUHU216WMR968SP,2013-12-13 17:19:00,
2013-12-13 11:24:00,44.8,13.5,29.83,South,174,2.9,4.9,28,0.00,,,0.00,WUHU216WMR968SP,2013-12-13 17:24:00,
2013-12-13 11:29:00,45.5,14.1,29.83,ESE,123,4.5,5.8,28,0.00,,,0.00,WUHU216WMR968SP,2013-12-13 17:29:00,
2013-12-13 11:34:00,46.6,14.2,29.83,South,181,5.4,6.3,27,0.00,,,0.00,WUHU216WMR968SP,2013-12-13 17:34:00,
2013-12-13 11:39:00,47.1,14.6,29.83,SSE,164,4.5,7.6,27,0.00,,,0.00,WUHU216WMR968SP,2013-12-13 17:39:00,
2013-12-13 11:44:00,47.3,14.8,29.83,SSE,166,5.5,8.1,27,0.00,,,0.00,WUHU216WMR968SP,2013-12-13 17:44:00,
2013-12-13 11:49:00,47.3,14.8,29.83,SSW,198,7.2,10.1,27,0.00,,,0.00,WUHU216WMR968SP,2013-12-13 17:49:00,
2013-12-13 11:54:00,47.1,14.6,29.80,South,175,4.7,10.1,27,0.00,,,0.00,WUHU216WMR968SP,2013-12-13 17:54:00,
2013-12-13 12:00:00,46.8,14.4,29.80,South,172,4.5,7.6,27,0.00,,,0.00,WUHU216WMR968SP,2013-12-13 18:00:00,
2013-12-13 12:04:00,47.1,14.6,29.80,South,187,5.1,7.6,27,0.00,,,0.00,WUHU216WMR968SP,2013-12-13 18:04:00,
2013-12-13 12:10:00,47.8,15.2,29.80,South,184,5.4,7.6,27,0.00,,,0.00,WUHU216WMR968SP,2013-12-13 18:10:00,
2013-12-13 12:15:00,48.2,14.7,29.80,SE,146,5.5,10.1,26,0.00,,,0.00,WUHU216WMR968SP,2013-12-13 18:15:00,
2013-12-13 12:20:00,48.0,12.8,29.80,SSE,167,4.0,10.1,24,0.00,,,0.00,WUHU216WMR968SP,2013-12-13 18:20:00,
2013-12-13 12:25:00,47.8,12.6,29.77,South,183,5.1,6.3,24,0.00,,,0.00,WUHU216WMR968SP,2013-12-13 18:25:00,
2013-12-13 12:30:00,48.0,12.8,29.77,SSW,196,3.6,6.3,24,0.00,,,0.00,WUHU216WMR968SP,2013-12-13 18:30:00,
2013-12-13 12:35:00,48.4,13.1,29.77,South,176,5.5,8.7,24,0.00,,,0.00,WUHU216WMR968SP,2013-12-13 18:35:00,
2013-12-13 12:39:00,48.4,13.1,29.77,South,187,5.1,8.7,24,0.00,,,0.00,WUHU216WMR968SP,2013-12-13 18:39:00,
2013-12-13 12:44:00,48.4,13.1,29.77,SSE,150,4.0,6.3,24,0.00,,,0.00,WUHU216WMR968SP,2013-12-13 18:44:00,
2013-12-13 12:50:00,48.2,14.7,29.77,SSE,162,3.1,6.7,26,0.00,,,0.00,WUHU216WMR968SP,2013-12-13 18:50:00,
2013-12-13 12:55:00,48.4,13.1,29.77,East,91,3.6,6.7,24,0.00,,,0.00,WUHU216WMR968SP,2013-12-13 18:55:00,
2013-12-13 13:00:00,48.6,13.3,29.77,South,179,3.2,6.7,24,0.00,,,0.00,WUHU216WMR968SP,2013-12-13 19:00:00,
2013-12-13 13:05:00,48.6,13.3,29.77,SE,130,3.1,6.7,24,0.00,,,0.00,WUHU216WMR968SP,2013-12-13 19:05:00,
2013-12-13 13:10:00,48.6,13.3,29.74,ESE,104,3.6,5.8,24,0.00,,,0.00,WUHU216WMR968SP,2013-12-13 19:10:00,
2013-12-13 13:15:00,48.6,13.3,29.74,SE,125,4.0,6.3,24,0.00,,,0.00,WUHU216WMR968SP,2013-12-13 19:15:00,
2013-12-13 13:20:00,48.6,13.3,29.74,SSE,149,5.8,8.3,24,0.00,,,0.00,WUHU216WMR968SP,2013-12-13 19:20:00,
2013-12-13 13:25:00,48.4,13.1,29.74,SSE,148,5.8,10.1,24,0.00,,,0.00,WUHU216WMR968SP,2013-12-13 19:25:00,
2013-12-13 13:30:00,48.4,13.1,29.74,South,179,4.8,10.1,24,0.00,,,0.00,WUHU216WMR968SP,2013-12-13 19:30:00,
2013-12-13 13:35:00,48.7,13.4,29.74,South,188,4.0,6.3,24,0.00,,,0.00,WUHU216WMR968SP,2013-12-13 19:35:00,
2013-12-13 13:40:00,49.5,15.8,29.74,SE,145,4.9,6.3,26,0.00,,,0.00,WUHU216WMR968SP,2013-12-13 19:40:00,
2013-12-13 13:45:00,49.6,14.1,29.74,South,188,5.6,8.3,24,0.00,,,0.00,WUHU216WMR968SP,2013-12-13 19:45:00,
2013-12-13 13:50:00,49.8,14.3,29.74,South,185,5.2,8.3,24,0.00,,,0.00,WUHU216WMR968SP,2013-12-13 19:50:00,
2013-12-13 13:55:00,49.8,14.3,29.74,SSW,193,4.5,7.6,24,0.00,,,0.00,WUHU216WMR968SP,2013-12-13 19:55:00,
2013-12-13 14:00:00,49.6,14.1,29.74,South,181,4.9,6.3,24,0.00,,,0.00,WUHU216WMR968SP,2013-12-13 20:00:00,
2013-12-13 14:05:00,49.3,13.9,29.74,South,185,3.8,6.3,24,0.00,,,0.00,WUHU216WMR968SP,2013-12-13 20:05:00,
2013-12-13 14:10:00,49.1,13.7,29.74,South,181,3.9,6.3,24,0.00,,,0.00,WUHU216WMR968SP,2013-12-13 20:10:00,
2013-12-13 14:15:00,48.9,13.5,29.74,SSW,193,3.0,5.8,24,0.00,,,0.00,WUHU216WMR968SP,2013-12-13 20:15:00,
2013-12-13 14:20:00,48.9,13.5,29.74,SSE,156,4.0,5.8,24,0.00,,,0.00,WUHU216WMR968SP,2013-12-13 20:20:00,
2013-12-13 14:25:00,48.7,13.4,29.74,South,179,4.0,5.4,24,0.00,,,0.00,WUHU216WMR968SP,2013-12-13 20:25:00,
2013-12-13 14:30:00,48.6,13.3,29.74,South,188,4.5,6.3,24,0.00,,,0.00,WUHU216WMR968SP,2013-12-13 20:30:00,
2013-12-13 14:35:00,48.2,12.9,29.74,SSE,148,4.0,6.3,24,0.00,,,0.00,WUHU216WMR968SP,2013-12-13 20:35:00,
2013-12-13 14:40:00,47.8,10.7,29.74,South,177,4.8,8.1,22,0.00,,,0.00,WUHU216WMR968SP,2013-12-13 20:40:00,
2013-12-13 14:45:00,47.5,10.4,29.74,SSE,167,4.7,8.1,22,0.00,,,0.00,WUHU216WMR968SP,2013-12-13 20:45:00,
2013-12-13 14:50:00,47.1,10.1,29.74,SSW,192,4.0,8.1,22,0.00,,,0.00,WUHU216WMR968SP,2013-12-13 20:50:00,
2013-12-13 14:55:00,46.9,11.8,29.74,South,185,3.1,6.3,24,0.00,,,0.00,WUHU216WMR968SP,2013-12-13 20:55:00,
2013-12-13 15:00:00,46.8,11.7,29.74,South,178,3.3,4.9,24,0.00,,,0.00,WUHU216WMR968SP,2013-12-13 21:00:00,
2013-12-13 15:05:00,46.6,11.6,29.74,South,188,4.3,5.8,24,0.00,,,0.00,WUHU216WMR968SP,2013-12-13 21:05:00,
2013-12-13 15:10:00,46.6,11.6,29.74,South,173,2.8,5.8,24,0.00,,,0.00,WUHU216WMR968SP,2013-12-13 21:10:00,
2013-12-13 15:15:00,46.6,11.6,29.74,South,171,3.7,5.8,24,0.00,,,0.00,WUHU216WMR968SP,2013-12-13 21:15:00,
2013-12-13 15:20:00,46.4,11.4,29.74,South,174,3.9,5.8,24,0.00,,,0.00,WUHU216WMR968SP,2013-12-13 21:20:00,
2013-12-13 15:25:00,46.2,12.1,29.74,South,173,3.1,5.8,25,0.00,,,0.00,WUHU216WMR968SP,2013-12-13 21:25:00,
2013-12-13 15:30:00,46.0,12.0,29.74,SSE,159,3.6,5.4,25,0.00,,,0.00,WUHU216WMR968SP,2013-12-13 21:30:00,
2013-12-13 15:35:00,45.9,11.9,29.74,SSE,168,2.2,5.4,25,0.00,,,0.00,WUHU216WMR968SP,2013-12-13 21:35:00,
2013-12-13 15:40:00,45.7,11.7,29.74,South,170,3.6,4.5,25,0.00,,,0.00,WUHU216WMR968SP,2013-12-13 21:40:00,
2013-12-13 15:45:00,45.5,11.5,29.74,South,171,2.8,5.4,25,0.00,,,0.00,WUHU216WMR968SP,2013-12-13 21:45:00,
2013-12-13 15:50:00,45.3,11.4,29.74,SSE,162,2.2,5.4,25,0.00,,,0.00,WUHU216WMR968SP,2013-12-13 21:50:00,
2013-12-13 15:55:00,45.1,11.2,29.74,South,169,2.7,3.6,25,0.00,,,0.00,WUHU216WMR968SP,2013-12-13 21:55:00,
2013-12-13 16:00:00,45.0,11.1,29.74,South,169,2.5,3.6,25,0.00,,,0.00,WUHU216WMR968SP,2013-12-13 22:00:00,
2013-12-13 16:05:00,44.8,10.9,29.74,South,189,2.2,3.6,25,0.00,,,0.00,WUHU216WMR968SP,2013-12-13 22:05:00,
2013-12-13 16:10:00,44.6,12.5,29.71,South,171,2.2,3.6,27,0.00,,,0.00,WUHU216WMR968SP,2013-12-13 22:10:00,
2013-12-13 16:15:00,44.6,12.5,29.71,SE,139,0.0,3.6,27,0.00,,,0.00,WUHU216WMR968SP,2013-12-13 22:15:00,
2013-12-13 16:20:00,44.4,13.1,29.71,SSE,151,2.7,4.5,28,0.00,,,0.00,WUHU216WMR968SP,2013-12-13 22:20:00,
2013-12-13 16:25:00,44.4,13.1,29.71,SE,142,0.0,4.5,28,0.00,,,0.00,WUHU216WMR968SP,2013-12-13 22:25:00,
2013-12-13 16:30:00,44.2,12.9,29.71,SSE,155,0.0,3.1,28,0.00,,,0.00,WUHU216WMR968SP,2013-12-13 22:30:00,
2013-12-13 16:35:00,44.2,12.9,29.71,ESE,111,3.1,3.6,28,0.00,,,0.00,WUHU216WMR968SP,2013-12-13 22:35:00,
2013-12-13 16:40:00,43.7,12.5,29.68,East,92,2.7,4.9,28,0.00,,,0.00,WUHU216WMR968SP,2013-12-13 22:40:00,
2013-12-13 16:45:00,43.0,11.9,29.68,ESE,121,4.3,7.6,28,0.00,,,0.00,WUHU216WMR968SP,2013-12-13 22:45:00,
2013-12-13 16:50:00,42.8,11.7,29.68,South,181,2.7,7.6,28,0.00,,,0.00,WUHU216WMR968SP,2013-12-13 22:50:00,
2013-12-13 16:55:00,42.8,11.7,29.65,South,172,0.0,3.6,28,0.00,,,0.00,WUHU216WMR968SP,2013-12-13 22:55:00,
2013-12-13 17:00:00,43.0,12.7,29.65,SSE,149,2.7,4.9,29,0.00,,,0.00,WUHU216WMR968SP,2013-12-13 23:00:00,
2013-12-13 17:05:00,43.2,12.8,29.65,SE,144,4.0,5.4,29,0.00,,,0.00,WUHU216WMR968SP,2013-12-13 23:05:00,
2013-12-13 17:10:00,43.2,12.8,29.68,SSE,159,3.6,5.8,29,0.00,,,0.00,WUHU216WMR968SP,2013-12-13 23:10:00,
2013-12-13 17:15:00,43.3,12.9,29.68,South,176,2.4,6.3,29,0.00,,,0.00,WUHU216WMR968SP,2013-12-13 23:15:00,
2013-12-13 17:20:00,43.0,12.7,29.68,SSE,158,4.5,6.3,29,0.00,,,0.00,WUHU216WMR968SP,2013-12-13 23:20:00,
2013-12-13 17:25:00,42.8,12.5,29.68,SSE,168,3.4,7.2,29,0.00,,,0.00,WUHU216WMR968SP,2013-12-13 23:25:00,
2013-12-13 17:30:00,42.6,12.3,29.68,East,91,3.1,7.2,29,0.00,,,0.00,WUHU216WMR968SP,2013-12-13 23:30:00,
2013-12-13 17:35:00,42.4,12.9,29.68,SE,142,2.7,5.8,30,0.00,,,0.00,WUHU216WMR968SP,2013-12-13 23:35:00,
2013-12-13 17:40:00,42.4,12.9,29.65,ESE,118,2.7,5.4,30,0.00,,,0.00,WUHU216WMR968SP,2013-12-13 23:40:00,
2013-12-13 17:45:00,42.4,12.9,29.65,South,184,4.0,6.3,30,0.00,,,0.00,WUHU216WMR968SP,2013-12-13 23:45:00,
2013-12-13 17:50:00,42.4,13.7,29.65,ESE,106,2.7,6.3,31,0.00,,,0.00,WUHU216WMR968SP,2013-12-13 23:50:00,
2013-12-13 17:55:00,42.6,13.8,29.65,South,182,2.4,4.9,31,0.00,,,0.00,WUHU216WMR968SP,2013-12-13 23:55:00,
2013-12-13 18:00:00,42.6,13.8,29.65,South,187,0.0,4.9,31,0.00,,,0.00,WUHU216WMR968SP,2013-12-14 00:00:00,
2013-12-13 18:05:00,42.4,13.7,29.65,South,187,0.0,2.7,31,0.00,,,0.00,WUHU216WMR968SP,2013-12-14 00:05:00,
2013-12-13 18:10:00,42.3,15.7,29.68,South,187,0.0,0.0,34,0.00,,,0.00,WUHU216WMR968SP,2013-12-14 00:10:00,
2013-12-13 18:15:00,41.7,17.7,29.68,South,187,0.0,0.0,38,0.00,,,0.00,WUHU216WMR968SP,2013-12-14 00:15:00,
2013-12-13 18:20:00,41.5,17.5,29.68,South,187,0.0,0.0,38,0.00,,,0.00,WUHU216WMR968SP,2013-12-14 00:20:00,
2013-12-13 18:25:00,41.5,16.3,29.71,WSW,254,0.0,4.0,36,0.00,,,0.00,WUHU216WMR968SP,2013-12-14 00:25:00,
2013-12-13 18:30:00,41.7,15.8,29.71,WSW,248,0.0,4.0,35,0.00,,,0.00,WUHU216WMR968SP,2013-12-14 00:30:00,
2013-12-13 18:35:00,41.9,14.6,29.71,NNW,332,0.0,2.7,33,0.00,,,0.00,WUHU216WMR968SP,2013-12-14 00:35:00,
2013-12-13 18:40:00,42.1,14.1,29.74,SW,220,0.0,2.7,32,0.00,,,0.00,WUHU216WMR968SP,2013-12-14 00:40:00,
2013-12-13 18:45:00,42.1,14.1,29.74,SW,220,0.0,2.7,32,0.00,,,0.00,WUHU216WMR968SP,2013-12-14 00:45:00,
2013-12-13 18:50:00,41.9,14.6,29.74,SW,220,0.0,2.7,33,0.00,,,0.00,WUHU216WMR968SP,2013-12-14 00:50:00,
2013-12-13 18:55:00,41.9,14.6,29.74,SW,220,0.0,0.0,33,0.00,,,0.00,WUHU216WMR968SP,2013-12-14 00:55:00,
2013-12-13 19:00:00,41.7,14.5,29.74,SW,220,0.0,0.0,33,0.00,,,0.00,WUHU216WMR968SP,2013-12-14 01:00:00,
2013-12-13 19:05:00,41.7,15.1,29.74,SW,220,0.0,0.0,34,0.00,,,0.00,WUHU216WMR968SP,2013-12-14 01:05:00,
2013-12-13 19:10:00,41.5,16.3,29.71,SW,220,0.0,0.0,36,0.00,,,0.00,WUHU216WMR968SP,2013-12-14 01:10:00,
2013-12-13 19:13:00,40.6,16.1,29.71,SW,220,0.0,0.0,37,0.00,,,0.00,WUHU216WMR968SP,2013-12-14 01:13:00,
2013-12-13 19:18:00,39.0,15.9,29.71,SW,220,0.0,2.7,39,0.00,,,0.00,WUHU216WMR968SP,2013-12-14 01:18:00,
2013-12-13 19:23:00,37.4,16.2,29.71,SW,220,0.0,2.7,42,0.00,,,0.00,WUHU216WMR968SP,2013-12-14 01:23:00,
2013-12-13 19:28:00,36.9,16.9,29.71,SW,220,0.0,2.2,44,0.00,,,0.00,WUHU216WMR968SP,2013-12-14 01:28:00,
2013-12-13 19:33:00,36.5,19.1,29.71,SW,220,0.0,0.0,49,0.00,,,0.00,WUHU216WMR968SP,2013-12-14 01:33:00,
2013-12-13 19:38:00,36.1,20.1,29.71,SW,220,0.0,0.0,52,0.00,,,0.00,WUHU216WMR968SP,2013-12-14 01:38:00,
2013-12-13 19:43:00,35.8,19.9,29.71,SW,220,0.0,0.0,52,0.00,,,0.00,WUHU216WMR968SP,2013-12-14 01:43:00,
2013-12-13 19:48:00,35.6,20.1,29.71,SW,220,0.0,0.0,53,0.00,,,0.00,WUHU216WMR968SP,2013-12-14 01:48:00,
2013-12-13 19:53:00,35.6,20.6,29.68,SW,220,0.0,0.0,54,0.00,,,0.00,WUHU216WMR968SP,2013-12-14 01:53:00,
2013-12-13 19:58:00,35.6,21.5,29.68,SW,220,0.0,0.0,56,0.00,,,0.00,WUHU216WMR968SP,2013-12-14 01:58:00,
2013-12-13 20:03:00,35.6,21.9,29.68,SW,220,0.0,0.0,57,0.00,,,0.00,WUHU216WMR968SP,2013-12-14 02:03:00,
2013-12-13 20:08:00,35.8,24.5,29.65,ESE,109,0.0,3.6,63,0.00,,,0.00,WUHU216WMR968SP,2013-12-14 02:08:00,
2013-12-13 20:13:00,35.6,25.4,29.65,South,179,0.0,3.6,66,0.00,,,0.00,WUHU216WMR968SP,2013-12-14 02:13:00,
2013-12-13 20:18:00,35.6,26.2,29.65,SSE,159,3.1,5.8,68,0.00,,,0.00,WUHU216WMR968SP,2013-12-14 02:18:00,
2013-12-13 20:23:00,35.6,26.8,29.65,SSE,156,3.5,8.1,70,0.00,,,0.00,WUHU216WMR968SP,2013-12-14 02:23:00,
2013-12-13 20:28:00,35.6,27.5,29.65,ESE,104,3.6,8.1,72,0.00,,,0.00,WUHU216WMR968SP,2013-12-14 02:28:00,
2013-12-13 20:33:00,35.8,28.0,29.65,South,186,3.1,5.8,73,0.00,,,0.00,WUHU216WMR968SP,2013-12-14 02:33:00,
2013-12-13 20:38:00,35.8,28.4,29.65,East,99,3.1,6.3,74,0.00,,,0.00,WUHU216WMR968SP,2013-12-14 02:38:00,
2013-12-13 20:43:00,35.8,28.7,29.65,East,90,3.1,7.2,75,0.00,,,0.00,WUHU216WMR968SP,2013-12-14 02:43:00,
2013-12-13 20:48:00,36.0,29.5,29.65,ESE,119,4.1,7.6,77,0.00,,,0.00,WUHU216WMR968SP,2013-12-14 02:48:00,
2013-12-13 20:53:00,36.1,29.9,29.62,SE,129,4.3,8.1,78,0.00,,,0.00,WUHU216WMR968SP,2013-12-14 02:53:00,
2013-12-13 20:58:00,36.1,30.2,29.62,South,180,3.7,8.3,79,0.00,,,0.00,WUHU216WMR968SP,2013-12-14 02:58:00,
2013-12-13 21:03:00,36.1,30.5,29.62,SSE,148,3.7,8.3,80,0.00,,,0.00,WUHU216WMR968SP,2013-12-14 03:03:00,
2013-12-13 21:08:00,36.3,31.0,29.59,East,91,4.5,8.7,81,0.00,,,0.00,WUHU216WMR968SP,2013-12-14 03:08:00,
2013-12-13 21:13:00,36.5,32.0,29.59,SE,137,4.1,8.7,82,0.00,,,0.00,WUHU216WMR968SP,2013-12-14 03:13:00,
2013-12-13 21:18:00,36.7,32.0,29.59,South,185,6.3,10.1,83,0.00,,,0.00,WUHU216WMR968SP,2013-12-14 03:18:00,
2013-12-13 21:23:00,36.9,33.8,29.59,SSE,158,4.5,10.1,84,0.00,,,0.00,WUHU216WMR968SP,2013-12-14 03:23:00,
2013-12-13 21:28:00,37.0,33.8,29.59,SSE,155,8.3,10.5,84,0.00,,,0.00,WUHU216WMR968SP,2013-12-14 03:28:00,
2013-12-13 21:33:00,37.0,33.8,29.59,SSE,161,7.2,15.0,85,0.00,,,0.00,WUHU216WMR968SP,2013-12-14 03:33:00,
2013-12-13 21:38:00,37.0,33.8,29.59,SE,137,6.3,15.0,85,0.00,,,0.00,WUHU216WMR968SP,2013-12-14 03:38:00,
2013-12-13 21:43:00,36.9,33.8,29.59,SE,139,5.1,12.3,85,0.00,,,0.00,WUHU216WMR968SP,2013-12-14 03:43:00,
2013-12-13 21:48:00,36.9,33.8,29.59,SE,145,7.2,11.9,86,0.00,,,0.00,WUHU216WMR968SP,2013-12-14 03:48:00,
2013-12-13 21:53:00,36.9,33.8,29.59,SSE,153,7.6,12.3,86,0.00,,,0.00,WUHU216WMR968SP,2013-12-14 03:53:00,
2013-12-13 21:58:00,37.0,33.8,29.59,SSE,162,5.8,12.3,86,0.00,,,0.00,WUHU216WMR968SP,2013-12-14 03:58:00,
2013-12-13 22:03:00,36.9,33.8,29.59,SE,146,3.5,10.5,87,0.00,,,0.00,WUHU216WMR968SP,2013-12-14 04:03:00,
2013-12-13 22:08:00,36.9,33.8,29.56,ENE,57,5.8,10.5,87,0.00,,,0.00,WUHU216WMR968SP,2013-12-14 04:08:00,
2013-12-13 22:13:00,36.7,33.8,29.56,East,93,6.7,12.3,87,0.00,,,0.00,WUHU216WMR968SP,2013-12-14 04:13:00,
2013-12-13 22:16:00,36.7,33.8,29.56,South,170,7.2,12.3,87,0.00,,,0.00,WUHU216WMR968SP,2013-12-14 04:16:00,
2013-12-13 22:22:00,36.7,33.8,29.56,SSE,160,5.3,12.3,88,0.00,,,0.00,WUHU216WMR968SP,2013-12-14 04:22:00,
2013-12-13 22:28:00,36.7,33.8,29.56,South,178,4.9,11.0,88,0.00,,,0.00,WUHU216WMR968SP,2013-12-14 04:28:00,
2013-12-13 22:33:00,36.9,33.8,29.56,SSE,162,4.0,8.3,88,0.00,,,0.00,WUHU216WMR968SP,2013-12-14 04:33:00,